Maritime Gisela — VRXB8 — position and weather

sailwx.info

Track history (hours):
 
Tides and Currents Weather Stations Pressure Air Temp Water Temp Dewpoint Dewpoint Depression Visibility Wind Speed Wind Dir Waves Ship Positions

Maritime Gisela

Last reported at 2017-Dec-15 13:24 UTC. Time now 2017-Dec-17 17:21 UTC.
Position N 30°59' E 122°30'.

Length 180 m; draft 6.8 m.

Type: Ship. MMSI: 477896000.

Date/timePositionNaut miles runAvg speedWind from/ knotsBaromVisibWave heightAir tempDewpointWater temp
2017-Dec-15 13:24N 30°59' E 122°30'410.0
2017-Dec-15 12:58N 31°00' E 122°25'510.5
2017-Dec-15 12:30N 31°01' E 122°20'510.6
2017-Dec-15 12:00N 31°02' E 122°14'4 7.3
2017-Dec-15 11:30N 31°03' E 122°10'4 8.6
2017-Dec-15 11:00N 31°04' E 122°05'5 9.6
2017-Dec-15 10:30N 31°05' E 121°60'5 9.2
2017-Dec-15 10:00N 31°08' E 121°55'6 9.6
2017-Dec-15 09:25N 31°11' E 121°50'410.0
2017-Dec-15 09:00N 31°14' E 121°47'611.5
2017-Dec-15 08:28N 31°19' E 121°42'3 3.0
2017-Dec-15 07:35N 31°22' E 121°43'0 0.0
2017-Dec-13 17:42N 31°22' E 121°43'0 0.0
2017-Dec-13 17:29N 31°22' E 121°43'0 0.1
2017-Dec-13 16:36N 31°22' E 121°43'0 0.4
2017-Dec-13 16:26N 31°22' E 121°43'  
2017-Dec-10 04:45N 31°18' E 121°47'3 9.7
2017-Dec-10 04:29N 31°17' E 121°50'2010.4
2017-Dec-10 02:33N 31°10' E 122°12'510.3
2017-Dec-10 02:06N 31°07' E 122°16'1 9.1
2017-Dec-10 01:59N 31°07' E 122°17'4 8.2
2017-Dec-10 01:30N 31°06' E 122°22'4 8.4
2017-Dec-10 01:00N 31°07' E 122°27'4 6.9
2017-Dec-10 00:23N 31°07' E 122°32'2 6.4
2017-Dec-10 00:00N 31°07' E 122°35'343 7.4
2017-Dec-08 01:47N 25°34' E 121°02'2 7.2
2017-Dec-08 01:30N 25°32' E 121°01'4 7.9
2017-Dec-08 01:00N 25°29' E 120°59'5 9.1
2017-Dec-08 00:29N 25°25' E 120°56'5 9.9
2017-Dec-08 00:00N 25°21' E 120°53'510.3
2017-Dec-07 23:30N 25°17' E 120°49'2110.9
2017-Dec-07 21:36N 24°60' E 120°36'211.9
2017-Dec-07 21:29N 24°59' E 120°35'8511.4
2017-Dec-07 14:01N 23°42' E 119°55'014.1
2017-Dec-07 14:00N 23°42' E 119°55'714.0
2017-Dec-07 13:30N 23°35' E 119°54'713.4
2017-Dec-07 13:00N 23°28' E 119°53'713.2
2017-Dec-07 12:30N 23°22' E 119°53'712.9
2017-Dec-07 11:56N 23°14' E 119°53'612.2
2017-Dec-07 11:26N 23°08' E 119°51'611.6
2017-Dec-07 10:56N 23°02' E 119°52'511.4
2017-Dec-07 10:30N 22°57' E 119°53'612.0
2017-Dec-07 10:00N 22°52' E 119°54'611.9
2017-Dec-07 09:30N 22°46' E 119°54'611.8
2017-Dec-07 09:00N 22°42' E 119°59'713.3
2017-Dec-07 08:31N 22°40' E 120°06'612.5
2017-Dec-07 08:00N 22°38' E 120°12'4 8.5
2017-Dec-07 07:30N 22°37' E 120°17'1 2.5
2017-Dec-07 07:00N 22°36' E 120°18'0 0.1
2017-Dec-07 06:25N 22°36' E 120°18'0 0.0
2017-Dec-07 05:58N 22°36' E 120°18'0 0.0
2017-Dec-07 05:28N 22°36' E 120°18'0 0.0
2017-Dec-07 04:58N 22°36' E 120°18'0 0.0
2017-Dec-07 04:19N 22°36' E 120°18'0 0.0
2017-Dec-07 03:55N 22°36' E 120°18'0 0.0
2017-Dec-07 03:28N 22°36' E 120°18'0 0.0
2017-Dec-07 02:58N 22°36' E 120°18'0 0.0
2017-Dec-07 02:28N 22°36' E 120°18'0 0.0
2017-Dec-07 01:58N 22°36' E 120°18'0 0.0
2017-Dec-07 01:28N 22°36' E 120°18'0 0.0
2017-Dec-07 00:58N 22°36' E 120°18'0 0.0
2017-Dec-07 00:25N 22°36' E 120°18'0 0.0
2017-Dec-06 23:58N 22°36' E 120°18'0 0.0
2017-Dec-06 23:28N 22°36' E 120°18'0 0.0
2017-Dec-06 22:58N 22°36' E 120°18'0 0.0
2017-Dec-06 22:22N 22°36' E 120°18'0 0.0
2017-Dec-06 21:58N 22°36' E 120°18'0 0.0
2017-Dec-06 21:28N 22°36' E 120°18'0 0.0
2017-Dec-06 20:58N 22°36' E 120°18'  
Track history (hours):
 
Tides and Currents Weather Stations Pressure Air Temp Water Temp Dewpoint Dewpoint Depression Visibility Wind Speed Wind Dir Waves Ship Positions

Maritime Gisela

Last reported at 2017-Dec-15 13:24 UTC. Time now 2017-Dec-17 17:21 UTC.
Position N 30°59' E 122°30'.

Length 180 m; draft 6.8 m.

Type: Ship. MMSI: 477896000.

Date/timePositionNaut miles runAvg speedWind from/ knotsBaromVisibWave heightAir tempDewpointWater temp
2017-Dec-15 13:24N 30°59' E 122°30'410.0
2017-Dec-15 12:58N 31°00' E 122°25'510.5
2017-Dec-15 12:30N 31°01' E 122°20'510.6
2017-Dec-15 12:00N 31°02' E 122°14'4 7.3
2017-Dec-15 11:30N 31°03' E 122°10'4 8.6
2017-Dec-15 11:00N 31°04' E 122°05'5 9.6
2017-Dec-15 10:30N 31°05' E 121°60'5 9.2
2017-Dec-15 10:00N 31°08' E 121°55'6 9.6
2017-Dec-15 09:25N 31°11' E 121°50'410.0
2017-Dec-15 09:00N 31°14' E 121°47'611.5
2017-Dec-15 08:28N 31°19' E 121°42'3 3.0
2017-Dec-15 07:35N 31°22' E 121°43'0 0.0
2017-Dec-13 17:42N 31°22' E 121°43'0 0.0
2017-Dec-13 17:29N 31°22' E 121°43'0 0.1
2017-Dec-13 16:36N 31°22' E 121°43'0 0.4
2017-Dec-13 16:26N 31°22' E 121°43'  
2017-Dec-10 04:45N 31°18' E 121°47'3 9.7
2017-Dec-10 04:29N 31°17' E 121°50'2010.4
2017-Dec-10 02:33N 31°10' E 122°12'510.3
2017-Dec-10 02:06N 31°07' E 122°16'1 9.1
2017-Dec-10 01:59N 31°07' E 122°17'4 8.2
2017-Dec-10 01:30N 31°06' E 122°22'4 8.4
2017-Dec-10 01:00N 31°07' E 122°27'4 6.9
2017-Dec-10 00:23N 31°07' E 122°32'2 6.4
2017-Dec-10 00:00N 31°07' E 122°35'343 7.4
2017-Dec-08 01:47N 25°34' E 121°02'2 7.2
2017-Dec-08 01:30N 25°32' E 121°01'4 7.9
2017-Dec-08 01:00N 25°29' E 120°59'5 9.1
2017-Dec-08 00:29N 25°25' E 120°56'5 9.9
2017-Dec-08 00:00N 25°21' E 120°53'510.3
2017-Dec-07 23:30N 25°17' E 120°49'2110.9
2017-Dec-07 21:36N 24°60' E 120°36'211.9
2017-Dec-07 21:29N 24°59' E 120°35'8511.4
2017-Dec-07 14:01N 23°42' E 119°55'014.1
2017-Dec-07 14:00N 23°42' E 119°55'714.0
2017-Dec-07 13:30N 23°35' E 119°54'713.4
2017-Dec-07 13:00N 23°28' E 119°53'713.2
2017-Dec-07 12:30N 23°22' E 119°53'712.9
2017-Dec-07 11:56N 23°14' E 119°53'612.2
2017-Dec-07 11:26N 23°08' E 119°51'611.6
2017-Dec-07 10:56N 23°02' E 119°52'511.4
2017-Dec-07 10:30N 22°57' E 119°53'612.0
2017-Dec-07 10:00N 22°52' E 119°54'611.9
2017-Dec-07 09:30N 22°46' E 119°54'611.8
2017-Dec-07 09:00N 22°42' E 119°59'713.3
2017-Dec-07 08:31N 22°40' E 120°06'612.5
2017-Dec-07 08:00N 22°38' E 120°12'4 8.5
2017-Dec-07 07:30N 22°37' E 120°17'1 2.5
2017-Dec-07 07:00N 22°36' E 120°18'0 0.1
2017-Dec-07 06:25N 22°36' E 120°18'0 0.0
2017-Dec-07 05:58N 22°36' E 120°18'0 0.0
2017-Dec-07 05:28N 22°36' E 120°18'0 0.0
2017-Dec-07 04:58N 22°36' E 120°18'0 0.0
2017-Dec-07 04:19N 22°36' E 120°18'0 0.0
2017-Dec-07 03:55N 22°36' E 120°18'0 0.0
2017-Dec-07 03:28N 22°36' E 120°18'0 0.0
2017-Dec-07 02:58N 22°36' E 120°18'0 0.0
2017-Dec-07 02:28N 22°36' E 120°18'0 0.0
2017-Dec-07 01:58N 22°36' E 120°18'0 0.0
2017-Dec-07 01:28N 22°36' E 120°18'0 0.0
2017-Dec-07 00:58N 22°36' E 120°18'0 0.0
2017-Dec-07 00:25N 22°36' E 120°18'0 0.0
2017-Dec-06 23:58N 22°36' E 120°18'0 0.0
2017-Dec-06 23:28N 22°36' E 120°18'0 0.0
2017-Dec-06 22:58N 22°36' E 120°18'0 0.0
2017-Dec-06 22:22N 22°36' E 120°18'0 0.0
2017-Dec-06 21:58N 22°36' E 120°18'0 0.0
2017-Dec-06 21:28N 22°36' E 120°18'0 0.0
2017-Dec-06 20:58N 22°36' E 120°18'  

Dump ship's entire track history